Time;durP1;ratioP1;P1;durP2;ratioP2;P2;SDS_P1;SDS_P2;PMS_P1;PMS_P2;Temp;Humidity;BMP_temperature;BMP_pressure;BME280_temperature;BME280_humidity;BME280_pressure;Samples;Min_cycle;Max_cycle;Signal;HPM_P1;HPM_P2
2021/06/27 00:00:02;;;;;;;13.20;8.17;;;;;;;;;;5094958;28;20520;-55
2021/06/27 00:02:30;;;;;;;10.13;7.23;;;;;;;;;;5097095;28;20447;-56
2021/06/27 00:08:02;;;;;;;12.20;9.00;;;;;;;;;;5095117;28;20518;-57
2021/06/27 00:10:31;;;;;;;11.13;9.00;;;;;;;;;;5078703;28;20523;-56
2021/06/27 00:12:59;;;;;;;18.77;12.33;;;;;;;;;;5096031;28;20483;-57
2021/06/27 00:15:34;;;;;;;25.50;20.10;;;;;;;;;;5096761;28;20476;-59
2021/06/27 00:18:09;;;;;;;18.97;13.80;;;;;;;;;;5095453;28;20455;-57
2021/06/27 00:20:38;;;;;;;13.40;9.10;;;;;;;;;;5094373;28;20489;-57
2021/06/27 00:23:14;;;;;;;15.70;8.70;;;;;;;;;;5094227;28;20503;-60
2021/06/27 00:26:01;;;;;;;13.87;9.90;;;;;;;;;;5095318;28;20515;-61
2021/06/27 00:28:30;;;;;;;17.00;12.40;;;;;;;;;;5095290;28;20487;-62
2021/06/27 00:30:59;;;;;;;16.60;12.37;;;;;;;;;;5074765;28;20453;-55
2021/06/27 00:33:52;;;;;;;11.43;9.43;;;;;;;;;;5079744;28;20551;-58
2021/06/27 00:36:20;;;;;;;14.50;10.20;;;;;;;;;;5095264;28;20456;-56
2021/06/27 00:38:48;;;;;;;12.23;8.70;;;;;;;;;;5094653;28;20448;-58
2021/06/27 00:41:31;;;;;;;12.90;8.70;;;;;;;;;;5094255;28;20634;-60
2021/06/27 00:43:59;;;;;;;13.90;11.00;;;;;;;;;;5094182;28;20467;-60
2021/06/27 00:46:26;;;;;;;16.73;13.53;;;;;;;;;;5095125;28;20464;-52
2021/06/27 00:49:25;;;;;;;16.63;12.90;;;;;;;;;;5095146;28;20460;-60
2021/06/27 00:51:52;;;;;;;16.33;11.17;;;;;;;;;;5092935;28;20488;-61
2021/06/27 00:54:21;;;;;;;15.80;11.53;;;;;;;;;;5093895;28;20503;-55
2021/06/27 00:56:48;;;;;;;24.50;21.17;;;;;;;;;;5095689;28;20526;-59
2021/06/27 00:59:16;;;;;;;14.47;10.27;;;;;;;;;;5095357;28;20437;-56
2021/06/27 01:01:57;;;;;;;15.63;11.87;;;;;;;;;;5095660;28;20452;-55
2021/06/27 01:04:24;;;;;;;15.27;8.67;;;;;;;;;;5095661;28;20443;-55
2021/06/27 01:06:52;;;;;;;16.83;13.30;;;;;;;;;;5095364;28;20448;-57
2021/06/27 01:09:19;;;;;;;19.53;14.30;;;;;;;;;;5094814;28;20494;-58
2021/06/27 01:11:48;;;;;;;20.43;13.60;;;;;;;;;;5094894;28;20460;-55
2021/06/27 01:14:15;;;;;;;15.03;11.97;;;;;;;;;;5095144;28;20475;-57
2021/06/27 01:16:46;;;;;;;17.90;13.23;;;;;;;;;;5095295;28;20527;-56
2021/06/27 01:19:14;;;;;;;18.53;14.37;;;;;;;;;;5094662;28;20455;-58
2021/06/27 01:21:43;;;;;;;19.70;13.50;;;;;;;;;;5076454;28;20459;-54
2021/06/27 01:24:14;;;;;;;12.30;8.70;;;;;;;;;;5095455;28;20467;-58
2021/06/27 01:26:41;;;;;;;11.57;9.83;;;;;;;;;;5093702;28;20476;-57
2021/06/27 01:29:09;;;;;;;12.37;10.10;;;;;;;;;;5094780;28;20519;-59
2021/06/27 01:31:36;;;;;;;12.13;9.70;;;;;;;;;;5095561;28;20467;-57
2021/06/27 01:34:04;;;;;;;14.33;9.90;;;;;;;;;;5095305;28;20452;-59
2021/06/27 01:36:32;;;;;;;12.90;8.20;;;;;;;;;;5094654;28;20877;-55
2021/06/27 01:39:02;;;;;;;13.60;9.30;;;;;;;;;;5094561;28;20468;-58
2021/06/27 01:41:30;;;;;;;15.03;9.07;;;;;;;;;;5074978;28;20487;-57
2021/06/27 01:44:00;;;;;;;13.23;8.77;;;;;;;;;;5078373;28;20491;-57
2021/06/27 01:46:27;;;;;;;12.67;9.20;;;;;;;;;;5094948;28;20519;-57
2021/06/27 01:48:54;;;;;;;12.97;8.90;;;;;;;;;;5094878;28;20427;-56
2021/06/27 01:51:24;;;;;;;15.20;9.93;;;;;;;;;;5094356;28;20460;-57
2021/06/27 01:53:51;;;;;;;15.50;8.40;;;;;;;;;;5094842;28;20464;-56
2021/06/27 01:56:20;;;;;;;12.67;10.87;;;;;;;;;;5097263;28;20464;-58
2021/06/27 01:58:50;;;;;;;15.43;9.10;;;;;;;;;;5098878;28;20452;-55
2021/06/27 02:01:18;;;;;;;13.13;10.67;;;;;;;;;;5098739;28;20448;-59
2021/06/27 02:03:50;;;;;;;11.23;9.07;;;;;;;;;;5098721;28;20435;-58
2021/06/27 02:06:17;;;;;;;16.03;11.40;;;;;;;;;;5098757;28;20488;-56
2021/06/27 02:08:45;;;;;;;11.87;9.50;;;;;;;;;;5098796;28;20459;-55
2021/06/27 02:11:49;;;;;;;12.70;10.17;;;;;;;;;;5098715;28;20451;-61
2021/06/27 02:14:17;;;;;;;15.60;10.90;;;;;;;;;;5094583;28;20511;-55
2021/06/27 02:16:45;;;;;;;12.80;10.80;;;;;;;;;;5098397;28;20490;-58
2021/06/27 02:19:13;;;;;;;12.27;10.53;;;;;;;;;;5099016;28;20476;-59
2021/06/27 02:21:40;;;;;;;11.13;9.00;;;;;;;;;;5098499;28;20459;-58
2021/06/27 02:24:08;;;;;;;14.63;12.47;;;;;;;;;;5098492;28;20423;-56
2021/06/27 02:26:39;;;;;;;13.23;10.40;;;;;;;;;;5098409;28;20452;-58
2021/06/27 02:29:07;;;;;;;13.50;9.90;;;;;;;;;;5098043;28;20603;-59
2021/06/27 02:31:37;;;;;;;14.37;9.80;;;;;;;;;;5098328;28;20464;-57
2021/06/27 02:34:09;;;;;;;17.17;12.57;;;;;;;;;;5098638;28;20483;-57
2021/06/27 02:36:37;;;;;;;14.80;12.17;;;;;;;;;;5098343;28;20442;-55
2021/06/27 02:39:04;;;;;;;31.23;22.93;;;;;;;;;;5098118;28;20455;-62
2021/06/27 02:41:43;;;;;;;32.40;19.50;;;;;;;;;;5097880;28;20486;-57
2021/06/27 02:44:11;;;;;;;14.40;10.80;;;;;;;;;;5098241;28;20514;-60
2021/06/27 02:46:40;;;;;;;13.40;10.37;;;;;;;;;;5098448;28;20539;-57
2021/06/27 02:49:45;;;;;;;19.63;15.10;;;;;;;;;;5098071;28;20463;-60
2021/06/27 02:52:13;;;;;;;18.73;15.83;;;;;;;;;;5095826;28;20495;-56
2021/06/27 02:54:40;;;;;;;23.73;19.40;;;;;;;;;;5098189;28;20472;-55
2021/06/27 02:57:28;;;;;;;14.23;10.17;;;;;;;;;;5098073;28;20460;-53
2021/06/27 02:59:56;;;;;;;14.07;11.03;;;;;;;;;;5095639;28;20499;-57
2021/06/27 03:02:25;;;;;;;14.00;11.10;;;;;;;;;;5097111;28;20527;-57
2021/06/27 03:05:05;;;;;;;15.80;11.27;;;;;;;;;;5097080;28;20451;-60
2021/06/27 03:07:32;;;;;;;16.40;10.90;;;;;;;;;;5096371;28;20487;-59
2021/06/27 03:09:59;;;;;;;15.83;11.93;;;;;;;;;;5097497;28;20447;-55
2021/06/27 03:12:29;;;;;;;36.70;29.73;;;;;;;;;;5097557;28;20499;-52
2021/06/27 03:14:57;;;;;;;22.87;17.90;;;;;;;;;;5097877;28;20475;-58
2021/06/27 03:17:25;;;;;;;12.50;9.90;;;;;;;;;;5098457;28;20460;-55
2021/06/27 03:20:03;;;;;;;26.73;20.03;;;;;;;;;;5097670;28;20468;-57
2021/06/27 03:22:30;;;;;;;29.50;23.30;;;;;;;;;;5097569;28;20519;-58
2021/06/27 03:24:58;;;;;;;19.37;16.20;;;;;;;;;;5098192;28;20439;-57
2021/06/27 03:27:56;;;;;;;14.00;12.20;;;;;;;;;;5098160;28;20487;-58
2021/06/27 03:30:24;;;;;;;21.57;17.00;;;;;;;;;;5096357;28;20466;-56
2021/06/27 03:32:53;;;;;;;19.27;14.33;;;;;;;;;;5096583;28;20547;-57
2021/06/27 03:35:21;;;;;;;14.07;9.90;;;;;;;;;;5097634;28;20496;-60
2021/06/27 03:37:53;;;;;;;21.87;19.57;;;;;;;;;;5098068;28;20456;-56
2021/06/27 03:40:21;;;;;;;13.50;9.90;;;;;;;;;;5097787;28;20452;-55
2021/06/27 03:42:58;;;;;;;12.60;10.23;;;;;;;;;;5097847;28;20416;-53
2021/06/27 03:45:26;;;;;;;11.90;9.90;;;;;;;;;;5097915;28;20499;-60
2021/06/27 03:47:55;;;;;;;13.33;9.30;;;;;;;;;;5097053;28;20460;-56
2021/06/27 03:50:54;;;;;;;11.57;9.10;;;;;;;;;;5096568;28;20464;-55
2021/06/27 03:53:21;;;;;;;13.87;9.63;;;;;;;;;;5095499;28;20496;-59
2021/06/27 03:55:49;;;;;;;12.87;8.90;;;;;;;;;;5096821;28;20495;-56
2021/06/27 03:58:55;;;;;;;13.90;9.53;;;;;;;;;;5096926;28;20456;-56
2021/06/27 04:01:23;;;;;;;12.23;9.23;;;;;;;;;;5093076;28;20495;-56
2021/06/27 04:03:52;;;;;;;13.70;9.20;;;;;;;;;;5079344;28;20468;-55
2021/06/27 04:06:52;;;;;;;11.63;8.97;;;;;;;;;;5076995;28;20434;-59
2021/06/27 04:09:20;;;;;;;14.57;9.53;;;;;;;;;;5080842;28;20510;-55
2021/06/27 04:11:47;;;;;;;12.83;9.37;;;;;;;;;;5096901;28;20496;-56
2021/06/27 04:14:21;;;;;;;9.70;8.20;;;;;;;;;;5096440;28;20444;-56
2021/06/27 04:16:48;;;;;;;11.77;8.53;;;;;;;;;;5097561;28;20519;-54
2021/06/27 04:19:17;;;;;;;12.57;9.70;;;;;;;;;;5096317;28;20511;-51
2021/06/27 04:21:50;;;;;;;13.20;9.17;;;;;;;;;;5097499;28;20464;-57
2021/06/27 04:24:18;;;;;;;10.60;8.20;;;;;;;;;;5097417;28;20475;-59
2021/06/27 04:26:45;;;;;;;12.67;9.40;;;;;;;;;;5096578;28;20448;-55
2021/06/27 04:29:31;;;;;;;9.97;8.40;;;;;;;;;;5096485;28;20522;-55
2021/06/27 04:31:59;;;;;;;9.70;8.60;;;;;;;;;;5096654;28;20456;-57
2021/06/27 04:34:28;;;;;;;10.60;9.30;;;;;;;;;;5095849;28;20553;-55
2021/06/27 04:37:05;;;;;;;11.90;7.97;;;;;;;;;;5096350;28;20710;-54
2021/06/27 04:39:33;;;;;;;14.43;9.40;;;;;;;;;;5096737;28;20456;-60
2021/06/27 04:42:00;;;;;;;13.53;10.10;;;;;;;;;;5096435;28;20503;-58
2021/06/27 04:44:27;;;;;;;18.43;8.50;;;;;;;;;;5096458;28;20511;-57
2021/06/27 04:46:55;;;;;;;15.77;11.63;;;;;;;;;;5096239;28;20456;-56
2021/06/27 04:49:22;;;;;;;14.40;8.50;;;;;;;;;;5096284;28;20456;-57
2021/06/27 04:51:53;;;;;;;10.40;8.03;;;;;;;;;;5096733;28;21337;-58
2021/06/27 04:54:21;;;;;;;12.47;8.83;;;;;;;;;;5097111;28;20437;-51
2021/06/27 04:56:58;;;;;;;11.27;8.93;;;;;;;;;;5097228;28;20441;-57
2021/06/27 04:59:26;;;;;;;12.60;9.27;;;;;;;;;;5097349;28;20505;-57
2021/06/27 05:02:00;;;;;;;17.97;9.10;;;;;;;;;;5096927;28;20552;-56
2021/06/27 05:04:36;;;;;;;13.03;9.03;;;;;;;;;;5096684;28;20456;-55
2021/06/27 05:07:07;;;;;;;12.30;9.27;;;;;;;;;;5095504;28;20466;-59
2021/06/27 05:09:38;;;;;;;11.83;8.83;;;;;;;;;;5096702;28;20439;-60
2021/06/27 05:12:07;;;;;;;11.57;8.30;;;;;;;;;;5078047;28;20672;-55
2021/06/27 05:14:34;;;;;;;10.33;9.00;;;;;;;;;;5076257;28;20451;-60
2021/06/27 05:20:08;;;;;;;14.03;10.87;;;;;;;;;;5086026;28;20646;-58
2021/06/27 05:22:37;;;;;;;11.77;8.37;;;;;;;;;;5095627;28;20487;-57
2021/06/27 05:28:08;;;;;;;11.70;9.33;;;;;;;;;;5053619;28;1160388;-54
2021/06/27 05:30:36;;;;;;;10.50;8.43;;;;;;;;;;5095556;28;20201;-59
2021/06/27 05:33:40;;;;;;;12.50;8.50;;;;;;;;;;5095651;28;20459;-59
2021/06/27 05:36:08;;;;;;;12.00;8.60;;;;;;;;;;5093699;28;20500;-59
2021/06/27 05:38:38;;;;;;;10.87;7.90;;;;;;;;;;5096023;28;20448;-59
2021/06/27 05:41:11;;;;;;;10.20;8.07;;;;;;;;;;5096196;28;20452;-61
2021/06/27 05:43:38;;;;;;;10.50;8.67;;;;;;;;;;5094442;28;20499;-57
2021/06/27 05:46:11;;;;;;;11.50;9.10;;;;;;;;;;5076236;28;20484;-57
2021/06/27 05:48:52;;;;;;;10.27;8.00;;;;;;;;;;5076082;28;20457;-54
2021/06/27 05:51:21;;;;;;;12.50;8.13;;;;;;;;;;5078956;28;20451;-60
2021/06/27 05:53:50;;;;;;;9.70;7.30;;;;;;;;;;5096553;28;20444;-55
2021/06/27 05:56:25;;;;;;;12.20;8.53;;;;;;;;;;5096240;28;20472;-57
2021/06/27 05:58:53;;;;;;;9.50;8.00;;;;;;;;;;5096233;28;20520;-55
2021/06/27 06:01:21;;;;;;;11.17;7.13;;;;;;;;;;5096136;28;20437;-54
2021/06/27 06:03:48;;;;;;;10.73;8.53;;;;;;;;;;5096693;28;20487;-61
2021/06/27 06:06:17;;;;;;;10.60;7.57;;;;;;;;;;5096259;28;20450;-56
2021/06/27 06:11:50;;;;;;;10.40;7.77;;;;;;;;;;5096060;28;20423;-60
2021/06/27 06:14:21;;;;;;;9.80;7.70;;;;;;;;;;5096429;28;20485;-58
2021/06/27 06:25:33;;;;;;;9.07;7.23;;;;;;;;;;5085662;28;20817;-57
2021/06/27 06:28:02;;;;;;;9.60;7.20;;;;;;;;;;5096077;28;20440;-55
2021/06/27 06:31:02;;;;;;;17.00;8.43;;;;;;;;;;5095907;28;20515;-56
2021/06/27 06:33:31;;;;;;;10.90;7.93;;;;;;;;;;5096468;28;20459;-57
2021/06/27 06:35:58;;;;;;;9.27;7.40;;;;;;;;;;5096123;28;20560;-55
2021/06/27 06:41:29;;;;;;;9.60;7.33;;;;;;;;;;5090133;28;20434;-56
2021/06/27 06:43:59;;;;;;;10.60;7.60;;;;;;;;;;5079488;28;20498;-52
2021/06/27 06:46:44;;;;;;;12.10;7.50;;;;;;;;;;5088049;28;20460;-57
2021/06/27 06:49:12;;;;;;;8.53;7.03;;;;;;;;;;5097448;28;20472;-54
2021/06/27 06:51:41;;;;;;;12.60;11.03;;;;;;;;;;5099069;28;20448;-60
2021/06/27 06:54:08;;;;;;;12.60;8.73;;;;;;;;;;5099277;28;20462;-53
2021/06/27 06:56:37;;;;;;;8.20;6.93;;;;;;;;;;5099509;28;20484;-60
2021/06/27 06:59:07;;;;;;;10.73;6.90;;;;;;;;;;5098748;28;20491;-53
2021/06/27 07:01:34;;;;;;;13.53;6.97;;;;;;;;;;5087651;28;20572;-55
2021/06/27 07:04:02;;;;;;;8.77;6.93;;;;;;;;;;5107457;28;20445;-57
2021/06/27 07:06:31;;;;;;;8.40;6.03;;;;;;;;;;5098960;28;20476;-55
2021/06/27 07:08:58;;;;;;;10.33;6.37;;;;;;;;;;5095100;28;20551;-55
2021/06/27 07:11:25;;;;;;;11.03;7.53;;;;;;;;;;5096401;28;20517;-56
2021/06/27 07:14:23;;;;;;;8.60;7.00;;;;;;;;;;5093261;28;20494;-57
2021/06/27 07:16:52;;;;;;;8.90;7.07;;;;;;;;;;5096347;28;20488;-54
2021/06/27 07:19:19;;;;;;;8.73;6.97;;;;;;;;;;5096864;28;20463;-57
2021/06/27 07:22:19;;;;;;;8.13;7.33;;;;;;;;;;5092841;28;20494;-56
2021/06/27 07:24:49;;;;;;;12.07;7.03;;;;;;;;;;5090562;28;20561;-54
2021/06/27 07:27:26;;;;;;;7.07;6.37;;;;;;;;;;5098057;28;20485;-54
2021/06/27 07:30:13;;;;;;;8.93;7.03;;;;;;;;;;5091971;28;20472;-58
2021/06/27 07:32:42;;;;;;;9.73;7.87;;;;;;;;;;5096466;28;20550;-52
2021/06/27 07:35:10;;;;;;;12.20;7.63;;;;;;;;;;5092050;28;20456;-54
2021/06/27 07:37:46;;;;;;;9.97;6.80;;;;;;;;;;5097659;28;20480;-58
2021/06/27 07:40:14;;;;;;;8.70;6.57;;;;;;;;;;5096138;28;20507;-58
2021/06/27 07:42:41;;;;;;;14.53;7.07;;;;;;;;;;5091026;28;20454;-57
2021/06/27 07:45:10;;;;;;;8.03;6.57;;;;;;;;;;5093672;28;20544;-52
2021/06/27 07:47:38;;;;;;;9.30;6.00;;;;;;;;;;5094322;28;20499;-58
2021/06/27 07:50:07;;;;;;;12.50;6.10;;;;;;;;;;5093699;28;20726;-60
2021/06/27 07:52:36;;;;;;;9.07;6.10;;;;;;;;;;5086778;28;20474;-57
2021/06/27 07:55:28;;;;;;;8.30;6.13;;;;;;;;;;5079848;28;20441;-59
2021/06/27 07:58:07;;;;;;;10.40;5.40;;;;;;;;;;5087195;28;20466;-57
2021/06/27 08:00:35;;;;;;;8.57;5.60;;;;;;;;;;5083001;28;20520;-58
2021/06/27 08:03:03;;;;;;;7.67;6.20;;;;;;;;;;5086562;28;20476;-57
2021/06/27 08:05:49;;;;;;;7.70;5.53;;;;;;;;;;5090018;28;20467;-52
2021/06/27 08:08:35;;;;;;;11.57;6.73;;;;;;;;;;5087584;28;20443;-57
2021/06/27 08:11:08;;;;;;;7.70;5.13;;;;;;;;;;5098124;28;20440;-54
2021/06/27 08:14:06;;;;;;;9.83;6.47;;;;;;;;;;5090820;28;20460;-58
2021/06/27 08:16:33;;;;;;;10.23;5.60;;;;;;;;;;5093962;28;20479;-55
2021/06/27 08:19:09;;;;;;;7.60;6.20;;;;;;;;;;5092627;28;20460;-57
2021/06/27 08:21:38;;;;;;;7.20;4.90;;;;;;;;;;5086011;28;20487;-56
2021/06/27 08:24:08;;;;;;;6.20;5.47;;;;;;;;;;5096249;28;20511;-52
2021/06/27 08:26:49;;;;;;;8.03;5.73;;;;;;;;;;5096009;28;20494;-58
2021/06/27 08:29:17;;;;;;;8.93;6.47;;;;;;;;;;5080152;28;20476;-57
2021/06/27 08:31:46;;;;;;;6.80;5.57;;;;;;;;;;5095561;28;20492;-61
2021/06/27 08:34:31;;;;;;;8.77;6.10;;;;;;;;;;5087963;28;20453;-56
2021/06/27 08:37:02;;;;;;;6.80;5.33;;;;;;;;;;5087810;28;20475;-53
2021/06/27 08:39:32;;;;;;;7.70;6.03;;;;;;;;;;5092530;28;20477;-53
2021/06/27 08:42:02;;;;;;;7.17;5.10;;;;;;;;;;5089651;28;20452;-59
2021/06/27 08:44:29;;;;;;;8.13;5.40;;;;;;;;;;5096146;28;20503;-55
2021/06/27 08:46:57;;;;;;;7.63;4.97;;;;;;;;;;5096643;28;20451;-56
2021/06/27 08:49:45;;;;;;;9.17;5.83;;;;;;;;;;5096406;28;20428;-60
2021/06/27 08:52:15;;;;;;;8.50;4.73;;;;;;;;;;5089193;28;20677;-58
2021/06/27 08:54:48;;;;;;;6.93;5.50;;;;;;;;;;5101903;28;20447;-56
2021/06/27 08:57:22;;;;;;;8.77;5.10;;;;;;;;;;5103324;28;20480;-55
2021/06/27 08:59:50;;;;;;;8.53;5.50;;;;;;;;;;5095998;28;20515;-58
2021/06/27 09:02:18;;;;;;;13.63;5.40;;;;;;;;;;5096463;28;20440;-58
2021/06/27 09:05:05;;;;;;;7.67;5.37;;;;;;;;;;5095624;28;20523;-58
2021/06/27 09:07:33;;;;;;;7.63;5.77;;;;;;;;;;5088368;28;20507;-56
2021/06/27 09:10:07;;;;;;;9.87;5.83;;;;;;;;;;5107346;28;20507;-59
2021/06/27 09:12:48;;;;;;;8.00;4.70;;;;;;;;;;5087626;28;20499;-58
2021/06/27 09:15:36;;;;;;;8.00;5.50;;;;;;;;;;5094005;28;20481;-59
2021/06/27 09:18:34;;;;;;;9.90;5.83;;;;;;;;;;5088408;28;20475;-57
2021/06/27 09:21:09;;;;;;;8.20;5.60;;;;;;;;;;5084974;28;20492;-56
2021/06/27 09:23:39;;;;;;;8.87;5.10;;;;;;;;;;5078589;28;20478;-60
2021/06/27 09:26:15;;;;;;;7.33;5.27;;;;;;;;;;5095441;28;20440;-53
2021/06/27 09:28:54;;;;;;;8.70;5.40;;;;;;;;;;5084885;28;20456;-57
2021/06/27 09:31:41;;;;;;;7.33;6.50;;;;;;;;;;5096081;28;20460;-57
2021/06/27 09:34:32;;;;;;;5.60;4.70;;;;;;;;;;5083044;28;20459;-55
2021/06/27 09:37:00;;;;;;;7.80;4.63;;;;;;;;;;5086768;28;20575;-55
2021/06/27 09:39:30;;;;;;;7.80;6.23;;;;;;;;;;5094933;28;20460;-57
2021/06/27 09:42:08;;;;;;;7.00;4.87;;;;;;;;;;5096045;28;20474;-57
2021/06/27 09:44:42;;;;;;;6.80;4.67;;;;;;;;;;5075801;28;20429;-58
2021/06/27 09:47:12;;;;;;;5.90;4.40;;;;;;;;;;5080843;28;20518;-60
2021/06/27 09:49:39;;;;;;;6.50;4.77;;;;;;;;;;5088197;28;20524;-56
2021/06/27 09:52:07;;;;;;;7.80;4.57;;;;;;;;;;5087357;28;20507;-59
2021/06/27 09:57:40;;;;;;;5.97;4.77;;;;;;;;;;5090308;28;20513;-54
2021/06/27 10:00:32;;;;;;;7.30;5.20;;;;;;;;;;5084137;28;20488;-61
2021/06/27 10:03:18;;;;;;;6.13;4.87;;;;;;;;;;5094621;28;20969;-60
2021/06/27 10:05:45;;;;;;;7.40;4.90;;;;;;;;;;5094377;28;20824;-52
2021/06/27 10:08:27;;;;;;;6.10;4.47;;;;;;;;;;5091027;28;20457;-57
2021/06/27 10:11:08;;;;;;;5.80;4.30;;;;;;;;;;5095940;28;20485;-58
2021/06/27 10:13:36;;;;;;;6.40;5.13;;;;;;;;;;5087710;28;20440;-56
2021/06/27 10:16:17;;;;;;;7.17;5.00;;;;;;;;;;5100624;28;20512;-58
2021/06/27 10:18:45;;;;;;;6.60;5.50;;;;;;;;;;5101536;28;20443;-47
2021/06/27 10:21:13;;;;;;;6.80;4.83;;;;;;;;;;5110797;28;20444;-56
2021/06/27 10:23:56;;;;;;;6.53;4.50;;;;;;;;;;5110337;28;20480;-56
2021/06/27 10:26:25;;;;;;;6.83;5.00;;;;;;;;;;5108338;28;20463;-55
2021/06/27 10:29:00;;;;;;;6.80;4.70;;;;;;;;;;5101470;28;20523;-53
2021/06/27 10:31:42;;;;;;;5.70;3.93;;;;;;;;;;5110910;28;20455;-59
2021/06/27 10:34:10;;;;;;;6.00;4.80;;;;;;;;;;5098407;28;20471;-59
2021/06/27 10:36:39;;;;;;;5.67;4.53;;;;;;;;;;5082684;28;20477;-56
2021/06/27 10:39:10;;;;;;;5.40;4.20;;;;;;;;;;5094625;28;20436;-54
2021/06/27 10:41:54;;;;;;;7.00;4.70;;;;;;;;;;5090357;28;20490;-55
2021/06/27 10:44:29;;;;;;;7.50;4.30;;;;;;;;;;5098482;28;20696;-64
2021/06/27 10:46:58;;;;;;;5.70;4.43;;;;;;;;;;5097472;28;20459;-54
2021/06/27 10:49:40;;;;;;;6.60;5.53;;;;;;;;;;5097530;28;20490;-56
2021/06/27 10:52:11;;;;;;;7.00;4.80;;;;;;;;;;5077785;28;20466;-61
2021/06/27 10:54:39;;;;;;;8.23;5.20;;;;;;;;;;5097577;28;20444;-60
2021/06/27 10:57:07;;;;;;;5.97;4.73;;;;;;;;;;5089671;28;20486;-53
2021/06/27 10:59:54;;;;;;;5.17;4.00;;;;;;;;;;5085826;28;20451;-55
2021/06/27 11:02:42;;;;;;;6.70;4.40;;;;;;;;;;5094040;28;20452;-52
2021/06/27 11:05:28;;;;;;;6.30;5.30;;;;;;;;;;5079842;28;20452;-59
2021/06/27 11:07:58;;;;;;;6.40;4.60;;;;;;;;;;5077971;28;20448;-55
2021/06/27 11:10:33;;;;;;;7.07;5.40;;;;;;;;;;5082267;28;20436;-59
2021/06/27 11:13:13;;;;;;;6.93;5.23;;;;;;;;;;5098049;28;20447;-59
2021/06/27 11:15:59;;;;;;;5.73;4.73;;;;;;;;;;5098789;28;20437;-58
2021/06/27 11:18:31;;;;;;;6.37;5.30;;;;;;;;;;5097075;28;20479;-59
2021/06/27 11:21:23;;;;;;;5.77;4.70;;;;;;;;;;5097086;28;20519;-58
2021/06/27 11:24:07;;;;;;;6.30;5.57;;;;;;;;;;5098028;28;20460;-61
2021/06/27 11:27:04;;;;;;;6.17;4.93;;;;;;;;;;5098000;28;20467;-53
2021/06/27 11:29:58;;;;;;;5.70;4.90;;;;;;;;;;5090387;28;20456;-60
2021/06/27 11:32:40;;;;;;;8.17;5.40;;;;;;;;;;5040230;28;20468;-55
2021/06/27 11:38:45;;;;;;;5.67;4.63;;;;;;;;;;5077442;28;20484;-58
2021/06/27 11:41:34;;;;;;;6.40;5.00;;;;;;;;;;5097240;28;20464;-55
2021/06/27 11:44:02;;;;;;;11.03;6.07;;;;;;;;;;5091536;28;20456;-57
2021/06/27 11:46:35;;;;;;;6.37;4.97;;;;;;;;;;5077488;28;20437;-53
2021/06/27 11:49:05;;;;;;;5.60;4.40;;;;;;;;;;5085165;28;20444;-61
2021/06/27 11:51:36;;;;;;;6.60;4.73;;;;;;;;;;5089360;28;20424;-60
2021/06/27 11:54:05;;;;;;;5.67;4.23;;;;;;;;;;5095808;28;20460;-55
2021/06/27 11:56:48;;;;;;;6.03;5.20;;;;;;;;;;5097316;28;20484;-58
2021/06/27 11:59:22;;;;;;;6.10;4.33;;;;;;;;;;5097275;28;20444;-53
2021/06/27 12:02:12;;;;;;;7.40;6.30;;;;;;;;;;5097059;28;20448;-54
2021/06/27 12:04:42;;;;;;;10.03;9.03;;;;;;;;;;5095350;28;20483;-52
2021/06/27 12:10:22;;;;;;;6.20;4.43;;;;;;;;;;5085971;28;20449;-56
2021/06/27 12:12:51;;;;;;;6.43;3.90;;;;;;;;;;5083499;28;20459;-57
2021/06/27 12:18:26;;;;;;;5.60;3.90;;;;;;;;;;5088662;28;20469;-59
2021/06/27 12:20:55;;;;;;;9.20;4.03;;;;;;;;;;5095450;28;20467;-61
2021/06/27 12:23:28;;;;;;;5.43;4.07;;;;;;;;;;5082278;28;20460;-60
2021/06/27 12:26:07;;;;;;;9.27;5.23;;;;;;;;;;5108437;28;20468;-56
2021/06/27 12:31:40;;;;;;;6.10;4.40;;;;;;;;;;5086461;28;20482;-56
2021/06/27 12:34:09;;;;;;;6.13;4.40;;;;;;;;;;5093365;28;20535;-54
2021/06/27 12:36:49;;;;;;;5.50;4.43;;;;;;;;;;5098813;28;20483;-54
2021/06/27 12:39:17;;;;;;;4.63;3.20;;;;;;;;;;5095624;28;20474;-51
2021/06/27 12:41:47;;;;;;;7.20;4.00;;;;;;;;;;5096015;28;20449;-56
2021/06/27 12:44:37;;;;;;;9.40;4.43;;;;;;;;;;5092198;28;20467;-53
2021/06/27 12:47:07;;;;;;;6.30;4.00;;;;;;;;;;5094159;28;20503;-58
2021/06/27 12:49:50;;;;;;;6.50;4.03;;;;;;;;;;5084598;28;20515;-60
2021/06/27 12:52:24;;;;;;;5.93;4.60;;;;;;;;;;5096522;28;20444;-54
2021/06/27 12:54:53;;;;;;;5.57;4.20;;;;;;;;;;5096563;28;20440;-56
2021/06/27 12:57:29;;;;;;;5.93;3.70;;;;;;;;;;5096007;28;20480;-58
2021/06/27 12:59:59;;;;;;;8.10;5.17;;;;;;;;;;5096630;28;20428;-60
2021/06/27 13:02:34;;;;;;;6.50;5.60;;;;;;;;;;5095973;28;20464;-60
2021/06/27 13:05:05;;;;;;;7.20;5.67;;;;;;;;;;5096059;28;20499;-58
2021/06/27 13:07:40;;;;;;;7.40;4.83;;;;;;;;;;5096165;28;20444;-60
2021/06/27 13:10:12;;;;;;;10.00;5.60;;;;;;;;;;5096828;28;20464;-56
2021/06/27 13:12:52;;;;;;;9.13;4.80;;;;;;;;;;5096200;28;20454;-55
2021/06/27 13:15:21;;;;;;;6.40;4.70;;;;;;;;;;5095681;28;20470;-57
2021/06/27 13:18:02;;;;;;;6.53;4.90;;;;;;;;;;5095688;28;20523;-56
2021/06/27 13:20:39;;;;;;;8.47;6.20;;;;;;;;;;5095325;28;20456;-60
2021/06/27 13:23:37;;;;;;;7.80;5.63;;;;;;;;;;5095885;28;20499;-51
2021/06/27 13:26:07;;;;;;;7.80;6.07;;;;;;;;;;5096099;28;20462;-58
2021/06/27 13:28:46;;;;;;;6.20;4.80;;;;;;;;;;5094455;28;20519;-58
2021/06/27 13:31:28;;;;;;;9.13;4.20;;;;;;;;;;5095502;28;20457;-59
2021/06/27 13:34:05;;;;;;;7.27;4.70;;;;;;;;;;5089477;28;20518;-57
2021/06/27 13:36:54;;;;;;;7.23;5.00;;;;;;;;;;5087046;28;20463;-58
2021/06/27 13:39:32;;;;;;;7.00;4.30;;;;;;;;;;5087107;28;20663;-63
2021/06/27 13:42:02;;;;;;;9.23;4.20;;;;;;;;;;5080353;28;20511;-54
2021/06/27 13:44:29;;;;;;;6.40;4.50;;;;;;;;;;5095473;28;20460;-56
2021/06/27 13:46:56;;;;;;;8.90;6.33;;;;;;;;;;5095114;28;20455;-55
2021/06/27 13:49:24;;;;;;;7.23;5.23;;;;;;;;;;5094508;28;20460;-54
2021/06/27 13:52:05;;;;;;;7.77;4.50;;;;;;;;;;5095532;28;20452;-57
2021/06/27 13:54:34;;;;;;;7.70;4.17;;;;;;;;;;5093293;28;20460;-59
2021/06/27 13:57:09;;;;;;;5.87;3.83;;;;;;;;;;5095112;28;20444;-57
2021/06/27 13:59:44;;;;;;;6.87;4.50;;;;;;;;;;5094274;28;20511;-58
2021/06/27 14:02:11;;;;;;;7.07;4.27;;;;;;;;;;5094917;28;20451;-50
2021/06/27 14:04:38;;;;;;;8.30;5.80;;;;;;;;;;5094711;28;20463;-56
2021/06/27 14:07:18;;;;;;;7.00;4.77;;;;;;;;;;5094789;28;20440;-56
2021/06/27 14:09:46;;;;;;;7.97;4.50;;;;;;;;;;5095647;28;20474;-57
2021/06/27 14:12:14;;;;;;;7.63;6.27;;;;;;;;;;5094460;28;20437;-60
2021/06/27 14:14:52;;;;;;;6.40;5.37;;;;;;;;;;5095048;28;20440;-58
2021/06/27 14:17:20;;;;;;;6.70;4.70;;;;;;;;;;5080436;28;20480;-58
2021/06/27 14:19:47;;;;;;;6.93;4.87;;;;;;;;;;5079710;28;20471;-53
2021/06/27 14:22:17;;;;;;;5.80;4.30;;;;;;;;;;5094827;28;20468;-56
2021/06/27 14:24:50;;;;;;;15.03;5.43;;;;;;;;;;5095664;28;20444;-57
2021/06/27 14:27:18;;;;;;;10.30;5.70;;;;;;;;;;5095141;28;20459;-55
2021/06/27 14:29:59;;;;;;;6.30;4.63;;;;;;;;;;5076599;28;20445;-53
2021/06/27 14:32:30;;;;;;;7.30;5.77;;;;;;;;;;5085768;28;20448;-58
2021/06/27 14:35:01;;;;;;;5.70;4.57;;;;;;;;;;5094895;28;20447;-54
2021/06/27 14:37:57;;;;;;;6.40;5.27;;;;;;;;;;5094527;28;20476;-55
2021/06/27 14:40:31;;;;;;;11.57;7.33;;;;;;;;;;5093867;28;20556;-54
2021/06/27 14:42:58;;;;;;;5.63;4.27;;;;;;;;;;5094650;28;20456;-60
2021/06/27 14:45:52;;;;;;;6.83;4.73;;;;;;;;;;5094503;28;20456;-55
2021/06/27 14:48:20;;;;;;;9.87;8.73;;;;;;;;;;5081582;28;20449;-56
2021/06/27 14:50:50;;;;;;;7.27;5.30;;;;;;;;;;5092211;28;20448;-58
2021/06/27 14:53:20;;;;;;;6.83;4.67;;;;;;;;;;5081461;28;20557;-57
2021/06/27 14:55:56;;;;;;;7.00;4.33;;;;;;;;;;5086619;28;20479;-57
2021/06/27 14:58:28;;;;;;;6.23;4.53;;;;;;;;;;5093432;28;20501;-59
2021/06/27 15:01:04;;;;;;;7.07;5.40;;;;;;;;;;5093534;28;20470;-57
2021/06/27 15:03:51;;;;;;;7.70;4.97;;;;;;;;;;5080496;28;20470;-55
2021/06/27 15:06:34;;;;;;;10.20;5.07;;;;;;;;;;5092595;28;20500;-58
2021/06/27 15:09:04;;;;;;;9.80;7.70;;;;;;;;;;5077747;28;20440;-56
2021/06/27 15:11:35;;;;;;;5.47;3.60;;;;;;;;;;5078019;28;20495;-56
2021/06/27 15:14:02;;;;;;;5.73;4.13;;;;;;;;;;5086058;28;20463;-54
2021/06/27 15:19:34;;;;;;;9.37;4.60;;;;;;;;;;5082109;28;20499;-62
2021/06/27 15:22:03;;;;;;;7.57;5.20;;;;;;;;;;5078027;28;20472;-57
2021/06/27 15:24:33;;;;;;;6.70;5.00;;;;;;;;;;5077763;28;20465;-56
2021/06/27 15:27:02;;;;;;;7.43;4.70;;;;;;;;;;5077405;28;20558;-57
2021/06/27 15:29:29;;;;;;;6.97;5.43;;;;;;;;;;5080593;28;20451;-53
2021/06/27 15:31:58;;;;;;;7.53;5.20;;;;;;;;;;5097434;28;20448;-58
2021/06/27 15:34:28;;;;;;;10.67;5.37;;;;;;;;;;5086068;28;20526;-60
2021/06/27 15:36:56;;;;;;;10.60;5.63;;;;;;;;;;5093433;28;20547;-57
2021/06/27 15:39:36;;;;;;;9.83;4.73;;;;;;;;;;5096310;28;20488;-59
2021/06/27 15:42:10;;;;;;;6.50;4.80;;;;;;;;;;5079294;28;20460;-58
2021/06/27 15:44:41;;;;;;;7.10;4.83;;;;;;;;;;5079345;28;20471;-55
2021/06/27 15:47:09;;;;;;;6.60;5.03;;;;;;;;;;5093781;28;20449;-58
2021/06/27 15:49:38;;;;;;;8.40;5.93;;;;;;;;;;5088070;28;20507;-54
2021/06/27 15:52:12;;;;;;;6.03;4.37;;;;;;;;;;5092484;28;20517;-52
2021/06/27 15:54:47;;;;;;;6.37;4.50;;;;;;;;;;5081866;28;20479;-56